Time;durP1;ratioP1;P1;durP2;ratioP2;P2;SDS_P1;SDS_P2;PMS_P1;PMS_P2;Temp;Humidity;BMP_temperature;BMP_pressure;BME280_temperature;BME280_humidity;BME280_pressure;Samples;Min_cycle;Max_cycle;Signal;HPM_P1;HPM_P2
2021/09/14 00:02:20;;;;;;;4.53;2.77;;;;;;;15.33;100.00;95845.94;5037943;28;24415;-79
2021/09/14 00:04:48;;;;;;;4.15;3.20;;;;;;;15.37;100.00;95855.19;5037442;28;24447;-79
2021/09/14 00:07:14;;;;;;;3.57;3.10;;;;;;;15.34;100.00;95845.00;5037237;28;24984;-79
2021/09/14 00:09:44;;;;;;;3.83;3.20;;;;;;;15.25;100.00;95841.34;5038918;28;24444;-80
2021/09/14 00:12:11;;;;;;;4.43;3.00;;;;;;;15.20;100.00;95844.34;5037802;28;24424;-79
2021/09/14 00:14:37;;;;;;;3.78;2.78;;;;;;;15.17;100.00;95839.34;5038403;28;24427;-79
2021/09/14 00:17:04;;;;;;;3.33;2.88;;;;;;;15.15;100.00;95835.22;5037097;28;24438;-79
2021/09/14 00:19:31;;;;;;;7.03;2.95;;;;;;;15.10;100.00;95845.19;5037981;28;24424;-80
2021/09/14 00:21:58;;;;;;;6.90;2.83;;;;;;;15.07;100.00;95837.59;5036976;28;25150;-79
2021/09/14 00:24:25;;;;;;;3.45;3.10;;;;;;;15.09;100.00;95843.50;5037131;28;24442;-79
2021/09/14 00:26:51;;;;;;;6.45;3.33;;;;;;;15.07;100.00;95828.00;5036623;28;24423;-79
2021/09/14 00:29:18;;;;;;;3.75;2.72;;;;;;;15.03;100.00;95842.22;5036769;28;24444;-79
2021/09/14 00:31:44;;;;;;;3.20;2.80;;;;;;;15.02;100.00;95840.59;5037127;28;25077;-79
2021/09/14 00:34:11;;;;;;;3.13;2.17;;;;;;;15.09;100.00;95831.31;5036528;28;24439;-79
2021/09/14 00:36:37;;;;;;;2.38;2.17;;;;;;;15.00;100.00;95825.03;5037571;28;24415;-80
2021/09/14 00:39:05;;;;;;;2.53;2.00;;;;;;;14.89;100.00;95825.06;5037085;28;24423;-80
2021/09/14 00:41:32;;;;;;;5.32;2.72;;;;;;;14.85;100.00;95823.66;5035755;28;24966;-79
2021/09/14 00:44:00;;;;;;;3.03;2.42;;;;;;;14.87;100.00;95821.75;5036332;28;24781;-79
2021/09/14 00:46:27;;;;;;;3.38;2.80;;;;;;;14.86;100.00;95829.69;5035547;28;24446;-79
2021/09/14 00:48:54;;;;;;;4.38;3.08;;;;;;;14.86;100.00;95816.66;5036197;28;24440;-79
2021/09/14 00:51:20;;;;;;;3.65;2.72;;;;;;;14.97;100.00;95809.63;5036626;28;24431;-79
2021/09/14 00:53:48;;;;;;;3.95;2.90;;;;;;;14.85;100.00;95817.59;5037037;28;24442;-79
2021/09/14 00:56:16;;;;;;;3.40;2.60;;;;;;;14.74;100.00;95818.44;5036033;28;24428;-79
2021/09/14 00:58:43;;;;;;;4.90;2.90;;;;;;;14.68;100.00;95816.31;5035237;28;24435;-79
2021/09/14 01:01:09;;;;;;;3.97;2.88;;;;;;;14.64;100.00;95817.50;5035350;28;24446;-79
2021/09/14 01:03:36;;;;;;;3.55;3.25;;;;;;;14.66;100.00;95816.44;5035398;28;24435;-79
2021/09/14 01:06:03;;;;;;;3.45;3.03;;;;;;;14.70;100.00;95809.22;5036219;28;24434;-79
2021/09/14 01:08:31;;;;;;;3.45;2.97;;;;;;;14.71;100.00;95805.66;5035182;28;24778;-79
2021/09/14 01:10:57;;;;;;;3.40;3.10;;;;;;;14.70;100.00;95804.81;5035404;28;24435;-79
2021/09/14 01:13:25;;;;;;;5.15;2.83;;;;;;;14.62;100.00;95814.22;5035144;28;24428;-79
2021/09/14 01:15:52;;;;;;;3.00;2.53;;;;;;;14.64;100.00;95807.09;5035305;28;24866;-80
2021/09/14 01:18:18;;;;;;;3.05;2.33;;;;;;;14.59;100.00;95807.44;5034974;28;24420;-79
2021/09/14 01:20:45;;;;;;;4.47;3.13;;;;;;;14.60;100.00;95806.50;5036435;28;24457;-79
2021/09/14 01:23:13;;;;;;;3.22;2.92;;;;;;;14.64;100.00;95810.50;5037226;28;24451;-79
2021/09/14 01:25:39;;;;;;;3.42;3.05;;;;;;;14.72;100.00;95810.75;5035063;28;24434;-79
2021/09/14 01:28:07;;;;;;;3.72;3.33;;;;;;;14.72;100.00;95805.56;5036353;28;24435;-80
2021/09/14 01:30:34;;;;;;;4.78;3.38;;;;;;;14.73;100.00;95802.00;5036111;28;24447;-80
2021/09/14 01:33:01;;;;;;;4.22;3.40;;;;;;;14.73;100.00;95808.97;5034325;28;24946;-79
2021/09/14 01:35:30;;;;;;;3.83;3.42;;;;;;;14.76;100.00;95799.13;5034509;28;24428;-79
2021/09/14 01:37:57;;;;;;;4.75;3.30;;;;;;;14.75;100.00;95802.69;5034426;28;24423;-79
2021/09/14 01:40:26;;;;;;;5.20;3.17;;;;;;;14.80;100.00;95809.34;5034690;28;24420;-80
2021/09/14 01:42:53;;;;;;;4.68;3.38;;;;;;;14.77;100.00;95792.97;5034320;28;24443;-80
2021/09/14 01:45:19;;;;;;;4.43;3.35;;;;;;;14.79;100.00;95805.03;5034905;28;24447;-79
2021/09/14 01:47:46;;;;;;;5.80;3.28;;;;;;;14.75;100.00;95797.47;5034411;28;24427;-79
2021/09/14 01:50:15;;;;;;;3.92;3.30;;;;;;;14.75;100.00;95810.50;5034138;28;24443;-79
2021/09/14 01:52:41;;;;;;;3.90;3.10;;;;;;;14.76;100.00;95811.34;5034711;28;24434;-79
2021/09/14 01:55:11;;;;;;;5.00;3.50;;;;;;;14.70;100.00;95807.44;5034055;28;24423;-79
2021/09/14 01:57:40;;;;;;;4.65;3.38;;;;;;;14.71;100.00;95806.47;5034919;28;24424;-79
2021/09/14 02:00:14;;;;;;;3.97;3.50;;;;;;;14.73;100.00;95815.03;5036064;28;24516;-79
2021/09/14 02:03:03;;;;;;;3.30;3.00;;;;;;;14.72;100.00;95815.13;5034260;28;24490;-79
2021/09/14 02:05:53;;;;;;;5.90;3.75;;;;;;;14.69;100.00;95816.22;5034878;28;24443;-79
2021/09/14 02:38:39;;;;;;;5.57;3.20;;;;;;;14.55;100.00;95795.59;5034073;28;24472;-79
2021/09/14 02:41:17;;;;;;;16.08;3.65;;;;;;;14.55;100.00;95797.38;5033989;28;24416;-79
2021/09/14 02:44:05;;;;;;;5.93;3.40;;;;;;;14.51;100.00;95802.00;5034093;28;24448;-79
2021/09/14 03:00:13;;;;;;;3.83;3.33;;;;;;;14.33;100.00;95793.81;5037955;28;24448;-79
2021/09/14 03:02:43;;;;;;;3.50;3.13;;;;;;;14.39;100.00;95795.94;5037094;28;24435;-79
2021/09/14 03:05:11;;;;;;;5.70;3.30;;;;;;;14.42;100.00;95792.25;5035660;28;24444;-80
2021/09/14 03:07:37;;;;;;;4.13;3.30;;;;;;;14.44;100.00;95795.59;5035009;28;24435;-79
2021/09/14 03:10:05;;;;;;;3.53;3.22;;;;;;;14.43;100.00;95799.97;5033969;28;24448;-80
2021/09/14 03:12:35;;;;;;;4.13;3.63;;;;;;;14.48;100.00;95792.63;5035534;28;24790;-79
2021/09/14 03:15:01;;;;;;;5.40;3.43;;;;;;;14.43;100.00;95788.72;5034449;28;24443;-79
2021/09/14 03:17:27;;;;;;;4.97;3.03;;;;;;;14.30;100.00;95794.03;5034233;28;24439;-79
2021/09/14 03:19:55;;;;;;;5.80;3.53;;;;;;;14.24;100.00;95787.53;5034729;28;24430;-80
2021/09/14 03:22:22;;;;;;;4.20;3.20;;;;;;;14.23;100.00;95787.63;5037340;28;24432;-79
2021/09/14 03:24:48;;;;;;;9.25;3.47;;;;;;;14.26;100.00;95788.22;5037267;28;24428;-79
2021/09/14 03:27:15;;;;;;;5.47;3.25;;;;;;;14.31;100.00;95787.06;5038245;28;24435;-79
2021/09/14 03:29:41;;;;;;;3.55;3.13;;;;;;;14.38;100.00;95788.22;5037344;28;24455;-79
2021/09/14 03:32:08;;;;;;;5.93;2.97;;;;;;;14.39;100.00;95782.09;5037152;28;24432;-79
2021/09/14 03:34:34;;;;;;;3.80;3.40;;;;;;;14.39;100.00;95784.69;5037681;28;24434;-79
2021/09/14 03:37:02;;;;;;;5.70;3.17;;;;;;;14.37;100.00;95784.81;5038219;28;24431;-79
2021/09/14 03:39:28;;;;;;;5.82;3.50;;;;;;;14.36;100.00;95783.16;5039028;28;24412;-79
2021/09/14 03:41:55;;;;;;;3.30;3.00;;;;;;;14.34;100.00;95777.22;5037929;28;24957;-79
2021/09/14 03:44:21;;;;;;;3.10;2.83;;;;;;;14.33;100.00;95779.97;5037281;28;24550;-79
2021/09/14 03:46:48;;;;;;;3.50;3.20;;;;;;;14.33;100.00;95778.19;5037865;28;24427;-80
2021/09/14 03:49:14;;;;;;;3.88;3.00;;;;;;;14.35;100.00;95778.03;5036813;28;24448;-79
2021/09/14 03:51:41;;;;;;;5.40;3.15;;;;;;;14.34;100.00;95777.22;5037625;28;24976;-79
2021/09/14 03:54:09;;;;;;;3.20;2.90;;;;;;;14.35;100.00;95771.09;5037385;28;24420;-79
2021/09/14 03:56:35;;;;;;;3.30;3.00;;;;;;;14.33;100.00;95774.75;5038615;28;24431;-79
2021/09/14 03:59:02;;;;;;;6.68;3.17;;;;;;;14.29;100.00;95772.38;5038017;28;24801;-79
2021/09/14 04:01:31;;;;;;;3.25;2.90;;;;;;;14.25;100.00;95773.56;5036892;28;24841;-79
2021/09/14 04:04:01;;;;;;;3.38;3.08;;;;;;;14.26;100.00;95774.38;5037850;28;24438;-79
2021/09/14 04:06:53;;;;;;;4.00;3.17;;;;;;;14.26;100.00;95775.22;5037511;28;24427;-79
2021/09/14 04:09:21;;;;;;;3.80;2.88;;;;;;;14.25;100.00;95773.56;5038320;28;24431;-79
2021/09/14 04:11:49;;;;;;;5.63;3.28;;;;;;;14.25;100.00;95768.34;5036703;28;24965;-79
2021/09/14 04:14:15;;;;;;;4.43;3.30;;;;;;;14.25;100.00;95757.94;5036696;28;24451;-79
2021/09/14 04:16:42;;;;;;;3.53;2.83;;;;;;;14.17;100.00;95768.13;5036858;28;24419;-79
2021/09/14 04:19:08;;;;;;;3.70;3.00;;;;;;;14.06;100.00;95764.69;5036452;28;24420;-79
2021/09/14 04:21:35;;;;;;;5.90;3.35;;;;;;;14.00;100.00;95758.16;5037577;28;24448;-79
2021/09/14 04:24:01;;;;;;;4.85;2.97;;;;;;;14.01;100.00;95762.41;5036220;28;24436;-79
2021/09/14 04:26:29;;;;;;;3.17;2.70;;;;;;;14.00;100.00;95760.75;5036607;28;24466;-79
2021/09/14 04:28:56;;;;;;;4.25;3.05;;;;;;;13.98;100.00;95767.88;5037059;28;24435;-79
2021/09/14 04:31:22;;;;;;;4.43;3.20;;;;;;;13.99;100.00;95761.72;5035505;28;24444;-79
2021/09/14 04:33:48;;;;;;;3.80;2.85;;;;;;;13.92;100.00;95763.13;5037465;28;24431;-79
2021/09/14 04:36:15;;;;;;;6.40;2.90;;;;;;;13.89;100.00;95772.00;5036008;28;24439;-79
2021/09/14 04:38:42;;;;;;;3.35;2.88;;;;;;;13.87;100.00;95767.84;5044248;28;24506;-79
2021/09/14 04:41:08;;;;;;;3.22;2.92;;;;;;;13.86;100.00;95772.22;5044334;28;24995;-80
2021/09/14 04:43:36;;;;;;;4.57;3.20;;;;;;;13.90;100.00;95767.63;5063047;28;24442;-80
2021/09/14 04:46:03;;;;;;;3.55;2.85;;;;;;;13.89;100.00;95763.34;5056079;28;24435;-79
2021/09/14 04:48:30;;;;;;;4.77;3.60;;;;;;;13.88;100.00;95767.75;5045514;28;24533;-79
2021/09/14 04:50:56;;;;;;;4.28;3.33;;;;;;;13.85;100.00;95772.34;5046667;28;24451;-79
2021/09/14 04:53:23;;;;;;;4.25;3.47;;;;;;;13.82;100.00;95767.38;5039740;28;24482;-82
2021/09/14 04:55:50;;;;;;;5.80;2.95;;;;;;;13.84;100.00;95774.13;5040296;28;24969;-81
2021/09/14 04:58:16;;;;;;;7.15;3.22;;;;;;;13.85;100.00;95772.34;5040803;28;24446;-81
2021/09/14 05:00:44;;;;;;;4.25;2.97;;;;;;;13.90;100.00;95772.81;5041536;28;24567;-82
2021/09/14 05:03:12;;;;;;;4.85;3.35;;;;;;;13.70;100.00;95772.56;5040738;28;24424;-83
2021/09/14 05:05:38;;;;;;;4.35;3.58;;;;;;;13.61;100.00;95777.59;5040235;28;24435;-83
2021/09/14 05:08:05;;;;;;;3.50;3.20;;;;;;;13.60;100.00;95782.00;5040122;28;24499;-82
2021/09/14 05:10:32;;;;;;;3.70;3.00;;;;;;;13.64;100.00;95779.97;5041199;28;24455;-82
2021/09/14 05:13:00;;;;;;;4.03;2.88;;;;;;;13.71;100.00;95774.19;5039976;28;24442;-81
2021/09/14 05:15:27;;;;;;;3.90;3.22;;;;;;;13.73;100.00;95774.09;5039214;28;24447;-82
2021/09/14 05:17:55;;;;;;;11.82;3.40;;;;;;;13.74;100.00;95768.78;5051642;28;24477;-82
2021/09/14 05:20:22;;;;;;;4.00;3.15;;;;;;;13.80;100.00;95773.53;5043536;28;24411;-84
2021/09/14 05:22:53;;;;;;;3.50;3.20;;;;;;;13.90;100.00;95778.03;5042467;28;24436;-84
2021/09/14 05:25:19;;;;;;;3.72;3.42;;;;;;;13.91;100.00;95770.13;5041422;28;24431;-84
2021/09/14 05:27:46;;;;;;;3.45;3.15;;;;;;;13.96;100.00;95773.19;5041085;28;24971;-84
2021/09/14 05:30:13;;;;;;;3.80;2.90;;;;;;;14.01;100.00;95776.25;5041322;28;24450;-84
2021/09/14 05:32:39;;;;;;;4.53;2.78;;;;;;;14.02;100.00;95777.13;5041381;28;24424;-84
2021/09/14 05:35:08;;;;;;;5.43;3.60;;;;;;;14.02;100.00;95772.72;5037393;28;24432;-81
2021/09/14 05:37:35;;;;;;;4.50;3.35;;;;;;;14.02;100.00;95777.94;5038893;28;24777;-81
2021/09/14 05:40:01;;;;;;;6.72;3.35;;;;;;;14.06;100.00;95783.75;5037345;28;24420;-78
2021/09/14 05:42:28;;;;;;;5.10;3.10;;;;;;;14.11;100.00;95773.78;5032409;28;24432;-77
2021/09/14 05:44:55;;;;;;;4.93;3.30;;;;;;;14.15;100.00;95779.59;5032412;28;24814;-76
2021/09/14 05:47:21;;;;;;;4.93;3.43;;;;;;;14.27;100.00;95771.66;5039664;28;24451;-78
2021/09/14 05:49:47;;;;;;;7.60;5.30;;;;;;;14.39;100.00;95779.50;5053663;28;24439;-77
2021/09/14 05:52:15;;;;;;;8.60;4.97;;;;;;;14.41;100.00;95780.19;5049584;28;24416;-78
2021/09/14 05:54:42;;;;;;;8.48;4.55;;;;;;;14.45;100.00;95784.22;5059087;28;24450;-78
2021/09/14 05:57:08;;;;;;;6.60;3.90;;;;;;;14.56;100.00;95780.78;5048739;28;24451;-78
2021/09/14 05:59:35;;;;;;;7.68;3.97;;;;;;;14.56;100.00;95772.97;5033116;28;24419;-78
2021/09/14 06:02:01;;;;;;;5.20;4.13;;;;;;;14.50;100.00;95779.50;5032206;28;24412;-78
2021/09/14 06:04:28;;;;;;;7.10;3.85;;;;;;;14.37;100.00;95782.19;5031633;28;24459;-77
2021/09/14 06:06:54;;;;;;;3.92;3.13;;;;;;;14.34;100.00;95785.03;5031622;28;24423;-74
2021/09/14 06:09:22;;;;;;;4.00;3.60;;;;;;;14.29;100.00;95785.41;5032805;28;24455;-79
2021/09/14 06:11:48;;;;;;;3.90;3.40;;;;;;;14.16;100.00;95786.44;5046163;28;24461;-76
2021/09/14 06:14:15;;;;;;;4.25;3.67;;;;;;;14.33;100.00;95790.38;5051306;28;24430;-77
2021/09/14 06:16:41;;;;;;;7.95;3.80;;;;;;;14.42;100.00;95798.28;5051353;28;24430;-77
2021/09/14 06:19:08;;;;;;;7.03;3.57;;;;;;;14.49;100.00;95788.22;5051020;28;24964;-77
2021/09/14 06:21:37;;;;;;;4.85;3.63;;;;;;;14.67;100.00;95793.81;5051554;28;24426;-77
2021/09/14 06:24:05;;;;;;;5.43;3.63;;;;;;;14.83;100.00;95783.84;5051423;28;24443;-77
2021/09/14 06:26:33;;;;;;;4.32;3.45;;;;;;;14.89;100.00;95782.50;5051172;28;24502;-77
2021/09/14 06:29:00;;;;;;;9.48;3.47;;;;;;;15.01;100.00;95782.34;5051138;28;24427;-77
2021/09/14 06:31:26;;;;;;;10.43;3.47;;;;;;;15.21;100.00;95785.16;5051259;28;24447;-77
2021/09/14 06:33:53;;;;;;;4.68;3.80;;;;;;;15.31;100.00;95787.81;5051257;28;24434;-77
2021/09/14 06:36:19;;;;;;;4.80;3.65;;;;;;;15.42;100.00;95783.38;5051210;28;24419;-78
2021/09/14 06:38:46;;;;;;;6.00;3.85;;;;;;;15.43;100.00;95786.84;5054897;28;24431;-78
2021/09/14 06:41:12;;;;;;;6.32;4.30;;;;;;;15.48;100.00;95788.13;5045371;28;24427;-78
2021/09/14 06:43:40;;;;;;;6.57;4.28;;;;;;;15.43;100.00;95789.47;5035333;28;25162;-78
2021/09/14 06:46:06;;;;;;;6.53;3.75;;;;;;;15.51;100.00;95800.09;5035028;28;24443;-78
2021/09/14 06:48:33;;;;;;;4.70;4.13;;;;;;;15.51;100.00;95799.28;5035626;28;24423;-78
2021/09/14 06:50:59;;;;;;;5.28;4.03;;;;;;;15.60;100.00;95799.31;5038809;28;24448;-77
2021/09/14 06:53:29;;;;;;;5.57;3.80;;;;;;;15.63;100.00;95793.84;5039056;28;24474;-78
2021/09/14 06:55:55;;;;;;;6.45;4.65;;;;;;;15.53;100.00;95803.38;5039732;28;24520;-77
2021/09/14 06:58:22;;;;;;;9.15;5.28;;;;;;;15.52;100.00;95798.31;5039282;28;24439;-78
2021/09/14 07:00:50;;;;;;;5.32;4.10;;;;;;;15.66;100.00;95795.44;5033042;28;24436;-78
2021/09/14 07:03:16;;;;;;;5.55;4.20;;;;;;;15.96;100.00;95794.66;5035107;28;24789;-76
2021/09/14 07:05:44;;;;;;;6.47;4.55;;;;;;;16.10;100.00;95796.94;5053231;28;24576;-77
2021/09/14 07:08:13;;;;;;;7.65;4.50;;;;;;;16.11;100.00;95805.59;5054784;28;24427;-77
2021/09/14 07:10:40;;;;;;;5.82;4.90;;;;;;;16.15;100.00;95801.78;5052591;28;24478;-77
2021/09/14 07:13:06;;;;;;;6.13;4.78;;;;;;;16.26;100.00;95788.63;5033070;28;24443;-76
2021/09/14 07:15:34;;;;;;;7.68;4.90;;;;;;;16.41;100.00;95794.31;5032573;28;24972;-76
2021/09/14 07:18:02;;;;;;;8.18;4.88;;;;;;;16.73;100.00;95790.72;5030826;28;25200;-77
2021/09/14 07:20:28;;;;;;;7.68;5.00;;;;;;;16.79;100.00;95792.81;5030823;28;24420;-76
2021/09/14 07:22:55;;;;;;;9.95;5.50;;;;;;;16.97;100.00;95798.25;5030639;28;24427;-76
2021/09/14 07:25:21;;;;;;;8.97;5.23;;;;;;;17.05;100.00;95791.34;5032340;28;24969;-76
2021/09/14 07:27:48;;;;;;;9.30;5.03;;;;;;;17.05;100.00;95790.53;5030804;28;24416;-77
2021/09/14 07:30:14;;;;;;;10.88;5.20;;;;;;;17.05;100.00;95793.97;5030522;28;24435;-76
2021/09/14 07:32:41;;;;;;;8.00;4.88;;;;;;;17.15;100.00;95792.22;5035373;28;24424;-77
2021/09/14 07:35:10;;;;;;;7.07;5.07;;;;;;;17.16;100.00;95795.66;5035191;28;24432;-77
2021/09/14 07:37:36;;;;;;;6.07;4.88;;;;;;;17.25;100.00;95794.84;5032259;28;24990;-77
2021/09/14 07:40:03;;;;;;;7.55;4.75;;;;;;;17.40;100.00;95803.94;5031389;28;25010;-76
2021/09/14 07:42:30;;;;;;;7.35;5.15;;;;;;;17.27;100.00;95800.75;5050209;28;24430;-77
2021/09/14 07:44:56;;;;;;;7.07;4.90;;;;;;;17.46;100.00;95799.94;5050896;28;24423;-76
2021/09/14 07:47:23;;;;;;;8.05;4.57;;;;;;;17.63;100.00;95798.44;5056229;28;24427;-77
2021/09/14 07:49:50;;;;;;;6.35;5.28;;;;;;;17.85;98.25;95792.09;5056901;28;24438;-76
2021/09/14 07:52:18;;;;;;;8.97;5.40;;;;;;;18.07;96.97;95801.44;5052986;28;24450;-77
2021/09/14 07:54:44;;;;;;;7.10;5.00;;;;;;;18.27;95.82;95815.31;5053170;28;24433;-76
2021/09/14 07:57:11;;;;;;;5.22;4.40;;;;;;;18.50;94.72;95811.38;5050032;28;24430;-77
2021/09/14 07:59:37;;;;;;;10.77;5.07;;;;;;;18.72;93.36;95804.13;5050336;28;24419;-76
2021/09/14 08:02:04;;;;;;;6.85;4.90;;;;;;;18.68;91.80;95807.97;5050242;28;25267;-76
2021/09/14 08:04:30;;;;;;;10.80;5.30;;;;;;;18.88;91.30;95811.38;5049845;28;24434;-76
2021/09/14 08:06:57;;;;;;;11.48;6.15;;;;;;;19.12;88.99;95798.50;5045964;28;24435;-77
2021/09/14 08:09:28;;;;;;;9.65;5.20;;;;;;;19.39;90.28;95800.25;5034351;28;24430;-77
2021/09/14 08:11:55;;;;;;;8.02;5.15;;;;;;;19.78;87.38;95802.59;5033599;28;24854;-76
2021/09/14 08:14:21;;;;;;;7.20;5.20;;;;;;;20.13;86.93;95804.31;5033814;28;24435;-75
2021/09/14 08:16:48;;;;;;;11.15;5.50;;;;;;;19.87;85.44;95803.47;5033548;28;24424;-77
2021/09/14 08:19:15;;;;;;;10.07;5.15;;;;;;;20.03;86.15;95804.44;5036911;28;24527;-77
2021/09/14 08:21:41;;;;;;;6.72;4.63;;;;;;;20.18;84.36;95806.50;5033341;28;24996;-76
2021/09/14 08:24:09;;;;;;;5.32;4.63;;;;;;;20.14;85.76;95813.88;5044668;28;25007;-78
2021/09/14 08:26:37;;;;;;;5.65;4.40;;;;;;;20.02;84.85;95804.56;5053339;28;24435;-77
2021/09/14 08:29:04;;;;;;;5.50;4.70;;;;;;;20.06;85.81;95801.50;5054357;28;25004;-77
2021/09/14 08:31:31;;;;;;;5.63;4.55;;;;;;;20.17;85.96;95805.69;5050059;28;24450;-76
2021/09/14 08:33:58;;;;;;;7.38;4.40;;;;;;;20.48;83.54;95807.84;5041002;28;24630;-77
2021/09/14 08:36:25;;;;;;;5.75;4.20;;;;;;;20.61;82.78;95807.44;5053049;28;24422;-76
2021/09/14 08:38:52;;;;;;;8.38;4.22;;;;;;;20.61;82.62;95805.63;5054348;28;24481;-77
2021/09/14 08:41:19;;;;;;;6.38;4.20;;;;;;;20.57;81.60;95806.09;5044592;28;24439;-77
2021/09/14 08:43:49;;;;;;;5.82;4.03;;;;;;;20.81;80.37;95802.75;5040777;28;24452;-77
2021/09/14 08:46:18;;;;;;;9.82;4.45;;;;;;;21.22;83.14;95804.53;5052854;28;24430;-76
2021/09/14 08:48:46;;;;;;;6.97;4.22;;;;;;;21.84;78.73;95793.59;5058041;28;24407;-77
2021/09/14 08:51:12;;;;;;;7.00;4.38;;;;;;;21.61;77.40;95803.13;5041673;28;25033;-76
2021/09/14 08:53:39;;;;;;;4.70;4.07;;;;;;;21.65;76.70;95793.91;5043887;28;24430;-76
2021/09/14 08:56:08;;;;;;;6.00;4.13;;;;;;;21.84;75.89;95796.25;5041079;28;24431;-76
2021/09/14 08:58:34;;;;;;;6.13;3.97;;;;;;;22.09;75.85;95797.03;5033582;28;24430;-75
2021/09/14 09:01:02;;;;;;;7.15;4.13;;;;;;;22.06;74.17;95793.88;5034782;28;24428;-77
2021/09/14 09:03:30;;;;;;;4.25;3.85;;;;;;;22.18;74.07;95800.53;5032756;28;24462;-76
2021/09/14 09:05:58;;;;;;;7.33;4.13;;;;;;;22.47;71.13;95802.56;5034590;28;24428;-78
2021/09/14 09:08:26;;;;;;;5.03;3.92;;;;;;;22.74;70.88;95805.81;5036007;28;24452;-77
2021/09/14 09:11:00;;;;;;;6.93;4.55;;;;;;;22.66;71.30;95810.13;5033414;28;24459;-77
2021/09/14 09:13:29;;;;;;;11.95;4.45;;;;;;;22.71;72.24;95804.34;5034407;28;24889;-77
2021/09/14 09:15:55;;;;;;;11.10;4.80;;;;;;;22.87;72.51;95808.72;5034869;28;24424;-77
2021/09/14 09:18:23;;;;;;;7.75;4.50;;;;;;;23.09;72.78;95807.16;5033958;28;24443;-78
2021/09/14 09:20:50;;;;;;;6.93;4.20;;;;;;;23.55;70.85;95794.03;5036734;28;24454;-78
2021/09/14 09:23:21;;;;;;;6.63;4.03;;;;;;;23.83;68.60;95792.50;5034155;28;24443;-76
2021/09/14 09:25:48;;;;;;;7.17;3.93;;;;;;;23.27;69.15;95793.72;5032577;28;24431;-77
2021/09/14 09:28:18;;;;;;;8.15;4.10;;;;;;;23.25;72.12;95796.53;5032636;28;24497;-76
2021/09/14 09:30:54;;;;;;;5.53;3.90;;;;;;;23.80;70.49;95792.84;5032725;28;25179;-77
2021/09/14 09:33:25;;;;;;;6.00;3.93;;;;;;;24.22;67.23;95796.00;5032142;28;24466;-77
2021/09/14 09:35:52;;;;;;;5.82;4.32;;;;;;;24.46;65.89;95795.75;5031892;28;24427;-76
2021/09/14 09:38:19;;;;;;;14.05;4.30;;;;;;;23.99;66.08;95790.72;5037944;28;24431;-76
2021/09/14 09:40:46;;;;;;;5.53;4.10;;;;;;;23.67;68.57;95800.56;5051654;28;24439;-77
2021/09/14 09:43:13;;;;;;;4.20;3.47;;;;;;;23.86;69.95;95793.97;5051850;28;24430;-77
2021/09/14 09:45:44;;;;;;;7.55;4.18;;;;;;;23.80;67.64;95792.03;5051566;28;24518;-76
2021/09/14 09:48:12;;;;;;;6.88;4.22;;;;;;;23.76;67.98;95788.91;5051235;28;24435;-76
2021/09/14 09:50:41;;;;;;;6.35;4.55;;;;;;;24.05;69.38;95798.75;5051746;28;24424;-76
2021/09/14 09:53:08;;;;;;;5.50;4.13;;;;;;;24.52;69.38;95791.56;5051493;28;25011;-77
2021/09/14 09:55:35;;;;;;;7.20;4.07;;;;;;;24.72;67.55;95784.69;5051323;28;24424;-77
2021/09/14 09:58:05;;;;;;;4.30;3.63;;;;;;;25.07;63.50;95788.41;5051551;28;24836;-76
2021/09/14 10:00:34;;;;;;;7.78;4.20;;;;;;;25.01;65.93;95790.97;5051305;28;24960;-76
2021/09/14 10:03:03;;;;;;;6.43;3.85;;;;;;;24.74;65.48;95792.47;5051538;28;24416;-77
2021/09/14 10:05:34;;;;;;;6.93;3.57;;;;;;;24.84;67.01;95785.06;5051086;28;24427;-77
2021/09/14 10:08:09;;;;;;;4.00;3.57;;;;;;;25.24;64.94;95788.22;5051350;28;24468;-76
2021/09/14 10:10:37;;;;;;;5.32;3.30;;;;;;;25.29;64.44;95797.25;5051155;28;24442;-77
2021/09/14 10:13:05;;;;;;;5.45;3.80;;;;;;;25.38;63.18;95797.97;5051023;28;24538;-77
2021/09/14 10:15:38;;;;;;;4.93;3.53;;;;;;;25.66;62.31;95799.88;5051252;28;24473;-77
2021/09/14 10:18:05;;;;;;;6.35;3.60;;;;;;;25.55;62.57;95795.91;5051459;28;24485;-77
2021/09/14 10:20:38;;;;;;;3.88;3.15;;;;;;;25.65;63.10;95792.91;5051232;28;24428;-77
2021/09/14 10:23:08;;;;;;;7.13;4.20;;;;;;;25.53;62.94;95787.31;5036659;28;25023;-76
2021/09/14 10:25:35;;;;;;;7.55;3.67;;;;;;;25.04;63.21;95795.91;5030511;28;24416;-76
2021/09/14 10:28:10;;;;;;;5.97;3.55;;;;;;;25.47;66.64;95793.34;5030961;28;24981;-76
2021/09/14 10:30:37;;;;;;;6.97;3.33;;;;;;;25.86;65.27;95787.66;5030359;28;24950;-77
2021/09/14 10:33:05;;;;;;;5.80;3.80;;;;;;;25.65;64.16;95783.13;5030850;28;24802;-76
2021/09/14 10:35:34;;;;;;;4.70;3.83;;;;;;;24.85;64.25;95790.19;5032284;28;24483;-76
2021/09/14 10:38:13;;;;;;;7.20;4.00;;;;;;;24.57;65.24;95791.84;5030522;28;24521;-76
2021/09/14 10:40:42;;;;;;;5.00;3.80;;;;;;;24.69;65.33;95785.06;5050321;28;24428;-75
2021/09/14 10:43:09;;;;;;;5.63;4.15;;;;;;;24.97;67.42;95781.75;5050732;28;24424;-76
2021/09/14 10:45:43;;;;;;;4.47;3.80;;;;;;;25.11;66.93;95791.53;5050318;28;24427;-76
2021/09/14 10:48:23;;;;;;;5.10;4.30;;;;;;;24.75;65.11;95786.16;5050508;28;24484;-76
2021/09/14 10:50:50;;;;;;;7.75;3.63;;;;;;;24.80;68.19;95794.38;5050859;28;24423;-77
2021/09/14 10:53:27;;;;;;;6.35;3.90;;;;;;;24.80;66.93;95803.13;5050231;28;24451;-76
2021/09/14 10:55:55;;;;;;;5.53;4.07;;;;;;;24.71;67.32;95800.78;5050305;28;24419;-76
2021/09/14 10:58:22;;;;;;;4.82;3.67;;;;;;;24.57;67.49;95794.47;5051031;28;24775;-76
2021/09/14 11:00:49;;;;;;;4.68;4.07;;;;;;;24.62;68.61;95795.59;5050873;28;24415;-76
2021/09/14 11:03:17;;;;;;;6.03;3.70;;;;;;;24.71;68.52;95792.84;5050136;28;24477;-76
2021/09/14 11:05:48;;;;;;;6.85;3.95;;;;;;;24.57;68.13;95791.84;5050164;28;25035;-76
2021/09/14 11:08:15;;;;;;;5.50;4.00;;;;;;;24.44;70.69;95786.38;5050440;28;24422;-76
2021/09/14 11:10:45;;;;;;;7.72;4.03;;;;;;;24.55;70.07;95791.22;5045208;28;24439;-76
2021/09/14 11:13:19;;;;;;;7.55;4.18;;;;;;;24.53;69.46;95785.25;5030333;28;24444;-77
2021/09/14 11:15:46;;;;;;;4.75;3.58;;;;;;;24.49;69.40;95786.63;5030127;28;24427;-75
2021/09/14 11:18:12;;;;;;;4.30;3.90;;;;;;;24.67;72.68;95792.38;5030516;28;24833;-76
2021/09/14 11:20:39;;;;;;;4.20;3.75;;;;;;;24.96;71.02;95788.06;5030480;28;24837;-77
2021/09/14 11:23:05;;;;;;;4.73;3.50;;;;;;;24.38;68.66;95796.63;5030482;28;24414;-76
2021/09/14 11:25:33;;;;;;;4.70;3.90;;;;;;;24.41;69.83;95797.31;5029978;28;24456;-76
2021/09/14 11:28:02;;;;;;;5.43;3.57;;;;;;;24.28;69.42;95801.34;5030154;28;24961;-76
2021/09/14 11:30:30;;;;;;;3.90;3.38;;;;;;;24.11;70.44;95797.25;5030463;28;24415;-76
2021/09/14 11:32:59;;;;;;;4.57;3.65;;;;;;;24.22;71.40;95799.44;5035427;28;24454;-76
2021/09/14 11:35:28;;;;;;;6.72;3.83;;;;;;;24.28;74.16;95806.66;5049843;28;24426;-76
2021/09/14 11:37:58;;;;;;;4.75;3.60;;;;;;;24.73;70.72;95806.72;5053369;28;24792;-76
2021/09/14 11:40:25;;;;;;;3.80;3.50;;;;;;;24.79;69.71;95814.75;5060501;28;24427;-76
2021/09/14 11:42:55;;;;;;;4.63;3.53;;;;;;;24.85;75.31;95810.56;5060810;28;25105;-76
2021/09/14 11:45:24;;;;;;;5.88;3.88;;;;;;;24.66;73.48;95811.94;5061712;28;25015;-76
2021/09/14 11:47:51;;;;;;;5.15;3.85;;;;;;;24.66;71.87;95808.44;5053939;28;25034;-76
2021/09/14 11:50:25;;;;;;;5.53;3.75;;;;;;;24.92;72.72;95810.63;5059229;28;24430;-76
2021/09/14 11:53:02;;;;;;;7.03;4.30;;;;;;;24.56;70.35;95814.03;5061540;28;24521;-77
2021/09/14 11:55:29;;;;;;;4.18;3.78;;;;;;;24.42;69.65;95809.53;5069789;28;25030;-76
2021/09/14 11:57:56;;;;;;;4.72;3.78;;;;;;;24.76;74.29;95812.47;5077165;28;24426;-76
2021/09/14 12:00:35;;;;;;;5.50;4.28;;;;;;;24.72;72.67;95815.66;5073949;28;24484;-76
2021/09/14 12:03:01;;;;;;;11.57;4.25;;;;;;;24.25;70.10;95809.69;5073681;28;24942;-75
2021/09/14 12:05:28;;;;;;;4.85;3.88;;;;;;;24.57;71.06;95805.06;5073182;28;24512;-76
2021/09/14 12:07:56;;;;;;;5.78;3.83;;;;;;;24.33;69.25;95808.78;5073701;28;24429;-77
2021/09/14 12:10:23;;;;;;;8.40;3.97;;;;;;;24.23;69.86;95808.22;5068581;28;24472;-76
2021/09/14 12:12:52;;;;;;;6.65;3.97;;;;;;;24.39;70.27;95816.00;5033516;28;24514;-75
2021/09/14 12:15:19;;;;;;;4.60;3.92;;;;;;;24.70;71.29;95813.22;5057866;28;24493;-76
2021/09/14 12:17:46;;;;;;;5.80;4.32;;;;;;;24.97;71.03;95811.72;5073350;28;24430;-77